sensor_id;sensor_type;location;lat;lon;timestamp;pressure;altitude;pressure_sealevel;temperature;humidity
17855;BME280;9053;53.358;6.382;2023-03-05T00:00:11;102055.69;;;6.00;97.62
17855;BME280;9053;53.358;6.382;2023-03-05T00:02:41;102043.63;;;6.02;97.60
17855;BME280;9053;53.358;6.382;2023-03-05T00:05:14;102047.25;;;6.04;97.66
17855;BME280;9053;53.358;6.382;2023-03-05T00:07:44;102050.19;;;6.09;97.72
17855;BME280;9053;53.358;6.382;2023-03-05T00:10:15;102039.03;;;6.12;97.79
17855;BME280;9053;53.358;6.382;2023-03-05T00:12:46;102033.13;;;6.14;97.78
17855;BME280;9053;53.358;6.382;2023-03-05T00:15:16;102032.34;;;6.15;97.98
17855;BME280;9053;53.358;6.382;2023-03-05T00:17:46;102026.31;;;6.16;98.06
17855;BME280;9053;53.358;6.382;2023-03-05T00:20:18;102022.00;;;6.17;97.98
17855;BME280;9053;53.358;6.382;2023-03-05T00:22:48;102022.47;;;6.11;97.97
17855;BME280;9053;53.358;6.382;2023-03-05T00:25:18;102021.25;;;6.06;98.01
17855;BME280;9053;53.358;6.382;2023-03-05T00:27:48;102020.69;;;5.98;97.93
17855;BME280;9053;53.358;6.382;2023-03-05T00:30:18;102014.09;;;5.92;98.00
17855;BME280;9053;53.358;6.382;2023-03-05T00:32:48;102012.97;;;5.88;97.84
17855;BME280;9053;53.358;6.382;2023-03-05T00:35:21;102018.00;;;5.85;97.88
17855;BME280;9053;53.358;6.382;2023-03-05T00:37:51;102014.16;;;5.80;97.83
17855;BME280;9053;53.358;6.382;2023-03-05T00:40:21;102013.47;;;5.71;97.71
17855;BME280;9053;53.358;6.382;2023-03-05T00:42:51;102013.25;;;5.68;97.58
17855;BME280;9053;53.358;6.382;2023-03-05T00:45:20;102010.44;;;5.64;97.58
17855;BME280;9053;53.358;6.382;2023-03-05T00:47:51;102011.69;;;5.58;97.32
17855;BME280;9053;53.358;6.382;2023-03-05T00:50:24;102010.31;;;5.51;97.37
17855;BME280;9053;53.358;6.382;2023-03-05T00:52:54;102001.47;;;5.49;97.32
17855;BME280;9053;53.358;6.382;2023-03-05T00:55:24;102004.19;;;5.51;97.22
17855;BME280;9053;53.358;6.382;2023-03-05T00:57:53;102007.72;;;5.51;97.04
17855;BME280;9053;53.358;6.382;2023-03-05T01:00:24;101997.28;;;5.51;97.03
17855;BME280;9053;53.358;6.382;2023-03-05T01:02:54;101997.06;;;5.48;97.04
17855;BME280;9053;53.358;6.382;2023-03-05T01:05:26;101989.34;;;5.50;97.11
17855;BME280;9053;53.358;6.382;2023-03-05T01:07:59;101987.66;;;5.50;96.96
17855;BME280;9053;53.358;6.382;2023-03-05T01:10:30;101980.59;;;5.49;96.82
17855;BME280;9053;53.358;6.382;2023-03-05T01:13:00;101972.75;;;5.49;96.85
17855;BME280;9053;53.358;6.382;2023-03-05T01:15:29;101975.38;;;5.49;96.86
17855;BME280;9053;53.358;6.382;2023-03-05T01:17:59;101967.25;;;5.45;96.66
17855;BME280;9053;53.358;6.382;2023-03-05T01:20:33;101980.97;;;5.42;96.63
17855;BME280;9053;53.358;6.382;2023-03-05T01:23:03;101961.56;;;5.38;96.46
17855;BME280;9053;53.358;6.382;2023-03-05T01:25:33;101964.75;;;5.34;96.48
17855;BME280;9053;53.358;6.382;2023-03-05T01:28:04;101969.03;;;5.34;96.42
17855;BME280;9053;53.358;6.382;2023-03-05T01:30:37;101966.44;;;5.34;96.37
17855;BME280;9053;53.358;6.382;2023-03-05T01:33:07;101959.75;;;5.37;96.23
17855;BME280;9053;53.358;6.382;2023-03-05T01:35:39;101949.41;;;5.39;96.34
17855;BME280;9053;53.358;6.382;2023-03-05T01:38:09;101957.03;;;5.36;96.39
17855;BME280;9053;53.358;6.382;2023-03-05T01:40:43;101954.53;;;5.37;96.40
17855;BME280;9053;53.358;6.382;2023-03-05T01:43:25;101950.34;;;5.39;96.43
17855;BME280;9053;53.358;6.382;2023-03-05T01:46:29;101946.13;;;5.41;96.51
17855;BME280;9053;53.358;6.382;2023-03-05T01:49:05;101940.00;;;5.41;96.37
17855;BME280;9053;53.358;6.382;2023-03-05T01:51:47;101932.78;;;5.37;96.40
17855;BME280;9053;53.358;6.382;2023-03-05T01:54:21;101927.44;;;5.35;96.46
17855;BME280;9053;53.358;6.382;2023-03-05T01:56:55;101927.56;;;5.37;96.62
17855;BME280;9053;53.358;6.382;2023-03-05T01:59:26;101916.88;;;5.34;96.56
17855;BME280;9053;53.358;6.382;2023-03-05T02:01:58;101918.50;;;5.32;96.59
17855;BME280;9053;53.358;6.382;2023-03-05T02:04:35;101917.56;;;5.31;96.62
17855;BME280;9053;53.358;6.382;2023-03-05T02:07:10;101914.84;;;5.30;96.42
17855;BME280;9053;53.358;6.382;2023-03-05T02:09:40;101904.22;;;5.27;96.60
17855;BME280;9053;53.358;6.382;2023-03-05T02:12:13;101907.59;;;5.26;96.60
17855;BME280;9053;53.358;6.382;2023-03-05T02:14:46;101903.97;;;5.24;96.58
17855;BME280;9053;53.358;6.382;2023-03-05T02:17:17;101905.66;;;5.23;96.51
17855;BME280;9053;53.358;6.382;2023-03-05T02:19:51;101896.25;;;5.25;96.54
17855;BME280;9053;53.358;6.382;2023-03-05T02:22:24;101886.63;;;5.24;96.54
17855;BME280;9053;53.358;6.382;2023-03-05T02:24:54;101888.31;;;5.24;96.61
17855;BME280;9053;53.358;6.382;2023-03-05T02:27:28;101883.22;;;5.25;96.56
17855;BME280;9053;53.358;6.382;2023-03-05T02:30:01;101884.94;;;5.25;96.35
17855;BME280;9053;53.358;6.382;2023-03-05T02:32:31;101885.84;;;5.25;96.49
17855;BME280;9053;53.358;6.382;2023-03-05T02:35:01;101890.91;;;5.24;96.35
17855;BME280;9053;53.358;6.382;2023-03-05T02:37:34;101894.00;;;5.18;96.29
17855;BME280;9053;53.358;6.382;2023-03-05T02:40:08;101883.59;;;5.06;96.37
17855;BME280;9053;53.358;6.382;2023-03-05T02:42:39;101872.50;;;4.97;96.07
17855;BME280;9053;53.358;6.382;2023-03-05T02:45:10;101866.81;;;4.91;96.17
17855;BME280;9053;53.358;6.382;2023-03-05T02:47:43;101870.25;;;4.90;96.09
17855;BME280;9053;53.358;6.382;2023-03-05T02:50:13;101871.13;;;4.90;96.24
17855;BME280;9053;53.358;6.382;2023-03-05T02:52:46;101868.66;;;4.92;96.41
17855;BME280;9053;53.358;6.382;2023-03-05T02:55:16;101865.94;;;4.90;96.59
17855;BME280;9053;53.358;6.382;2023-03-05T02:57:46;101865.25;;;4.93;96.62
17855;BME280;9053;53.358;6.382;2023-03-05T03:00:16;101856.75;;;4.95;96.74
17855;BME280;9053;53.358;6.382;2023-03-05T03:02:46;101851.66;;;4.97;96.97
17855;BME280;9053;53.358;6.382;2023-03-05T03:05:16;101853.66;;;5.01;96.97
17855;BME280;9053;53.358;6.382;2023-03-05T03:07:49;101857.28;;;5.03;97.06
17855;BME280;9053;53.358;6.382;2023-03-05T03:10:19;101852.19;;;5.05;97.24
17855;BME280;9053;53.358;6.382;2023-03-05T03:12:49;101853.22;;;5.07;97.21
17855;BME280;9053;53.358;6.382;2023-03-05T03:15:19;101843.56;;;5.06;97.34
17855;BME280;9053;53.358;6.382;2023-03-05T03:17:51;101834.03;;;5.06;97.51
17855;BME280;9053;53.358;6.382;2023-03-05T03:20:22;101839.25;;;5.06;97.57
17855;BME280;9053;53.358;6.382;2023-03-05T03:22:55;101852.97;;;5.04;97.70
17855;BME280;9053;53.358;6.382;2023-03-05T03:25:25;101854.59;;;4.90;97.53
17855;BME280;9053;53.358;6.382;2023-03-05T03:27:55;101839.66;;;4.75;97.56
17855;BME280;9053;53.358;6.382;2023-03-05T03:30:25;101831.94;;;4.65;97.58
17855;BME280;9053;53.358;6.382;2023-03-05T03:32:55;101825.50;;;4.60;97.68
17855;BME280;9053;53.358;6.382;2023-03-05T03:35:25;101822.13;;;4.61;97.73
17855;BME280;9053;53.358;6.382;2023-03-05T03:37:57;101823.09;;;4.63;97.86
17855;BME280;9053;53.358;6.382;2023-03-05T03:40:30;101817.22;;;4.66;97.91
17855;BME280;9053;53.358;6.382;2023-03-05T03:43:01;101807.94;;;4.69;98.02
17855;BME280;9053;53.358;6.382;2023-03-05T03:45:31;101807.34;;;4.73;98.10
17855;BME280;9053;53.358;6.382;2023-03-05T03:48:01;101798.16;;;4.78;98.24
17855;BME280;9053;53.358;6.382;2023-03-05T03:50:31;101803.72;;;4.83;98.35
17855;BME280;9053;53.358;6.382;2023-03-05T03:53:03;101791.00;;;4.88;98.57
17855;BME280;9053;53.358;6.382;2023-03-05T03:55:33;101795.66;;;4.92;98.69
17855;BME280;9053;53.358;6.382;2023-03-05T03:58:04;101780.94;;;4.92;98.84
17855;BME280;9053;53.358;6.382;2023-03-05T04:00:34;101781.72;;;4.91;99.04
17855;BME280;9053;53.358;6.382;2023-03-05T04:03:04;101786.94;;;4.91;99.01
17855;BME280;9053;53.358;6.382;2023-03-05T04:05:34;101789.66;;;4.93;99.17
17855;BME280;9053;53.358;6.382;2023-03-05T04:08:06;101777.41;;;4.92;99.29
17855;BME280;9053;53.358;6.382;2023-03-05T04:10:38;101784.44;;;4.93;99.34
17855;BME280;9053;53.358;6.382;2023-03-05T04:13:08;101778.31;;;4.92;99.42
17855;BME280;9053;53.358;6.382;2023-03-05T04:15:38;101775.84;;;4.94;99.55
17855;BME280;9053;53.358;6.382;2023-03-05T04:18:08;101781.03;;;4.94;99.70
17855;BME280;9053;53.358;6.382;2023-03-05T04:20:38;101778.44;;;4.94;99.68
17855;BME280;9053;53.358;6.382;2023-03-05T04:23:11;101778.44;;;4.94;99.77
17855;BME280;9053;53.358;6.382;2023-03-05T04:25:43;101774.22;;;4.96;100.00
17855;BME280;9053;53.358;6.382;2023-03-05T04:28:12;101771.59;;;4.96;99.86
17855;BME280;9053;53.358;6.382;2023-03-05T04:30:43;101776.81;;;4.96;99.94
17855;BME280;9053;53.358;6.382;2023-03-05T04:33:15;101767.31;;;4.96;100.00
17855;BME280;9053;53.358;6.382;2023-03-05T04:35:49;101763.91;;;4.97;100.00
17855;BME280;9053;53.358;6.382;2023-03-05T04:38:24;101763.22;;;5.00;100.00
17855;BME280;9053;53.358;6.382;2023-03-05T04:40:54;101757.78;;;4.97;100.00
17855;BME280;9053;53.358;6.382;2023-03-05T04:43:24;101768.91;;;4.94;100.00
17855;BME280;9053;53.358;6.382;2023-03-05T04:45:54;101759.16;;;4.92;100.00
17855;BME280;9053;53.358;6.382;2023-03-05T04:48:24;101759.06;;;4.90;100.00
17855;BME280;9053;53.358;6.382;2023-03-05T04:50:54;101752.81;;;4.88;100.00
17855;BME280;9053;53.358;6.382;2023-03-05T04:53:27;101749.31;;;4.88;100.00
17855;BME280;9053;53.358;6.382;2023-03-05T04:55:57;101751.03;;;4.87;100.00
17855;BME280;9053;53.358;6.382;2023-03-05T04:58:29;101750.91;;;4.86;100.00
17855;BME280;9053;53.358;6.382;2023-03-05T05:01:00;101750.13;;;4.87;100.00
17855;BME280;9053;53.358;6.382;2023-03-05T05:03:31;101747.50;;;4.87;100.00
17855;BME280;9053;53.358;6.382;2023-03-05T05:06:01;101750.13;;;4.87;100.00
17855;BME280;9053;53.358;6.382;2023-03-05T05:08:33;101747.50;;;4.87;100.00
17855;BME280;9053;53.358;6.382;2023-03-05T05:11:06;101748.28;;;4.86;100.00
17855;BME280;9053;53.358;6.382;2023-03-05T05:13:36;101745.69;;;4.86;100.00
17855;BME280;9053;53.358;6.382;2023-03-05T05:16:07;101743.88;;;4.85;100.00
17855;BME280;9053;53.358;6.382;2023-03-05T05:18:37;101748.28;;;4.86;100.00
17855;BME280;9053;53.358;6.382;2023-03-05T05:21:07;101751.72;;;4.85;100.00
17855;BME280;9053;53.358;6.382;2023-03-05T05:23:40;101751.78;;;4.86;100.00
17855;BME280;9053;53.358;6.382;2023-03-05T05:26:11;101743.97;;;4.86;100.00
17855;BME280;9053;53.358;6.382;2023-03-05T05:28:42;101739.69;;;4.87;100.00
17855;BME280;9053;53.358;6.382;2023-03-05T05:31:14;101739.69;;;4.87;100.00
17855;BME280;9053;53.358;6.382;2023-03-05T05:33:45;101738.06;;;4.89;100.00
17855;BME280;9053;53.358;6.382;2023-03-05T05:36:17;101740.69;;;4.89;99.94
17855;BME280;9053;53.358;6.382;2023-03-05T05:38:50;101738.06;;;4.89;100.00
17855;BME280;9053;53.358;6.382;2023-03-05T05:41:20;101730.25;;;4.89;100.00
17855;BME280;9053;53.358;6.382;2023-03-05T05:43:51;101732.84;;;4.89;99.99
17855;BME280;9053;53.358;6.382;2023-03-05T05:46:21;101727.78;;;4.90;100.00
17855;BME280;9053;53.358;6.382;2023-03-05T05:48:51;101724.16;;;4.88;99.91
17855;BME280;9053;53.358;6.382;2023-03-05T05:51:22;101730.25;;;4.89;99.82
17855;BME280;9053;53.358;6.382;2023-03-05T05:53:54;101723.25;;;4.88;99.91
17855;BME280;9053;53.358;6.382;2023-03-05T05:56:24;101727.66;;;4.89;100.00
17855;BME280;9053;53.358;6.382;2023-03-05T05:58:57;101720.63;;;4.88;99.91
17855;BME280;9053;53.358;6.382;2023-03-05T06:01:29;101724.06;;;4.87;99.92
17855;BME280;9053;53.358;6.382;2023-03-05T06:04:00;101725.66;;;4.85;99.71
17855;BME280;9053;53.358;6.382;2023-03-05T06:06:30;101710.78;;;4.84;99.66
17855;BME280;9053;53.358;6.382;2023-03-05T06:09:03;101715.91;;;4.82;99.77
17855;BME280;9053;53.358;6.382;2023-03-05T06:11:33;101723.50;;;4.79;99.72
17855;BME280;9053;53.358;6.382;2023-03-05T06:14:08;101719.75;;;4.75;99.69
17855;BME280;9053;53.358;6.382;2023-03-05T06:16:47;101713.44;;;4.72;99.44
17855;BME280;9053;53.358;6.382;2023-03-05T06:19:19;101711.63;;;4.71;99.41
17855;BME280;9053;53.358;6.382;2023-03-05T06:21:49;101708.31;;;4.73;99.44
17855;BME280;9053;53.358;6.382;2023-03-05T06:24:22;101711.84;;;4.74;99.25
17855;BME280;9053;53.358;6.382;2023-03-05T06:26:52;101713.88;;;4.78;99.40
17855;BME280;9053;53.358;6.382;2023-03-05T06:29:21;101707.97;;;4.81;99.26
17855;BME280;9053;53.358;6.382;2023-03-05T06:31:51;101711.59;;;4.83;99.16
17855;BME280;9053;53.358;6.382;2023-03-05T06:34:21;101710.91;;;4.85;99.21
17855;BME280;9053;53.358;6.382;2023-03-05T06:36:51;101714.63;;;4.89;99.03
17855;BME280;9053;53.358;6.382;2023-03-05T06:39:23;101710.53;;;4.92;99.10
17855;BME280;9053;53.358;6.382;2023-03-05T06:41:53;101716.66;;;4.93;99.08
17855;BME280;9053;53.358;6.382;2023-03-05T06:44:23;101732.28;;;4.93;99.04
17855;BME280;9053;53.358;6.382;2023-03-05T06:46:55;101723.13;;;4.86;98.80
17855;BME280;9053;53.358;6.382;2023-03-05T06:49:27;101716.59;;;4.80;98.89
17855;BME280;9053;53.358;6.382;2023-03-05T06:51:59;101714.56;;;4.75;98.73
17855;BME280;9053;53.358;6.382;2023-03-05T06:54:32;101712.53;;;4.71;98.84
17855;BME280;9053;53.358;6.382;2023-03-05T06:57:02;101698.72;;;4.72;98.61
17855;BME280;9053;53.358;6.382;2023-03-05T06:59:32;101712.84;;;4.76;98.68
17855;BME280;9053;53.358;6.382;2023-03-05T07:02:02;101701.66;;;4.77;98.88
17855;BME280;9053;53.358;6.382;2023-03-05T07:04:32;101706.38;;;4.83;98.81
17855;BME280;9053;53.358;6.382;2023-03-05T07:07:02;101708.41;;;4.87;98.83
17855;BME280;9053;53.358;6.382;2023-03-05T07:09:35;101703.41;;;4.90;98.94
17855;BME280;9053;53.358;6.382;2023-03-05T07:12:08;101698.19;;;4.90;99.01
17855;BME280;9053;53.358;6.382;2023-03-05T07:14:46;101701.81;;;4.92;98.99
17855;BME280;9053;53.358;6.382;2023-03-05T07:17:16;101702.84;;;4.94;99.05
17855;BME280;9053;53.358;6.382;2023-03-05T07:19:48;101704.97;;;4.99;99.13
17855;BME280;9053;53.358;6.382;2023-03-05T07:22:23;101694.06;;;5.05;99.15
17855;BME280;9053;53.358;6.382;2023-03-05T07:24:56;101694.25;;;5.08;99.30
17855;BME280;9053;53.358;6.382;2023-03-05T07:27:27;101691.06;;;5.12;99.32
17855;BME280;9053;53.358;6.382;2023-03-05T07:29:57;101695.69;;;5.16;99.37
17855;BME280;9053;53.358;6.382;2023-03-05T07:32:27;101698.53;;;5.19;99.58
17855;BME280;9053;53.358;6.382;2023-03-05T07:34:57;101698.53;;;5.19;99.43
17855;BME280;9053;53.358;6.382;2023-03-05T07:37:27;101699.75;;;5.25;99.53
17855;BME280;9053;53.358;6.382;2023-03-05T07:40:00;101690.53;;;5.30;99.55
17855;BME280;9053;53.358;6.382;2023-03-05T07:42:30;101695.75;;;5.30;99.57
17855;BME280;9053;53.358;6.382;2023-03-05T07:45:01;101687.22;;;5.32;99.62
17855;BME280;9053;53.358;6.382;2023-03-05T07:47:31;101690.53;;;5.30;99.65
17855;BME280;9053;53.358;6.382;2023-03-05T07:50:01;101683.50;;;5.29;99.64
17855;BME280;9053;53.358;6.382;2023-03-05T07:52:32;101685.53;;;5.33;99.87
17855;BME280;9053;53.358;6.382;2023-03-05T07:55:05;101683.03;;;5.34;99.70
17855;BME280;9053;53.358;6.382;2023-03-05T07:57:35;101687.56;;;5.37;99.89
17855;BME280;9053;53.358;6.382;2023-03-05T08:00:06;101684.44;;;5.42;99.70
17855;BME280;9053;53.358;6.382;2023-03-05T08:02:36;101677.13;;;5.50;99.79
17855;BME280;9053;53.358;6.382;2023-03-05T08:05:07;101675.84;;;5.57;99.61
17855;BME280;9053;53.358;6.382;2023-03-05T08:07:37;101667.41;;;5.61;99.54
17855;BME280;9053;53.358;6.382;2023-03-05T08:10:11;101674.84;;;5.68;99.58
17855;BME280;9053;53.358;6.382;2023-03-05T08:12:40;101671.53;;;5.71;99.45
17855;BME280;9053;53.358;6.382;2023-03-05T08:15:10;101667.66;;;5.77;99.41
17855;BME280;9053;53.358;6.382;2023-03-05T08:17:40;101666.94;;;5.80;99.31
17855;BME280;9053;53.358;6.382;2023-03-05T08:20:12;101672.56;;;5.86;99.08
17855;BME280;9053;53.358;6.382;2023-03-05T08:22:42;101664.31;;;5.93;99.05
17855;BME280;9053;53.358;6.382;2023-03-05T08:25:27;101662.63;;;6.07;99.11
17855;BME280;9053;53.358;6.382;2023-03-05T08:27:57;101659.22;;;6.21;99.04
17855;BME280;9053;53.358;6.382;2023-03-05T08:30:27;101665.53;;;6.38;99.16
17855;BME280;9053;53.358;6.382;2023-03-05T08:32:57;101676.06;;;6.40;98.97
17855;BME280;9053;53.358;6.382;2023-03-05T08:35:27;101673.88;;;6.19;98.64
17855;BME280;9053;53.358;6.382;2023-03-05T08:37:57;101678.22;;;6.05;98.39
17855;BME280;9053;53.358;6.382;2023-03-05T08:40:32;101681.59;;;5.91;98.15
17855;BME280;9053;53.358;6.382;2023-03-05T08:43:07;101674.28;;;5.72;97.88
17855;BME280;9053;53.358;6.382;2023-03-05T08:45:38;101661.69;;;5.67;97.80
17855;BME280;9053;53.358;6.382;2023-03-05T08:48:09;101654.69;;;5.66;97.60
17855;BME280;9053;53.358;6.382;2023-03-05T08:50:39;101654.47;;;5.62;97.78
17855;BME280;9053;53.358;6.382;2023-03-05T08:53:09;101647.88;;;5.68;97.76
17855;BME280;9053;53.358;6.382;2023-03-05T08:55:42;101643.16;;;5.75;97.74
17855;BME280;9053;53.358;6.382;2023-03-05T08:58:12;101642.03;;;5.85;97.89
17855;BME280;9053;53.358;6.382;2023-03-05T09:00:42;101640.16;;;5.96;98.07
17855;BME280;9053;53.358;6.382;2023-03-05T09:03:12;101632.13;;;6.06;98.27
17855;BME280;9053;53.358;6.382;2023-03-05T09:05:42;101626.78;;;6.18;98.35
17855;BME280;9053;53.358;6.382;2023-03-05T09:08:12;101627.56;;;6.30;98.41
17855;BME280;9053;53.358;6.382;2023-03-05T09:10:45;101627.44;;;6.42;98.53
17855;BME280;9053;53.358;6.382;2023-03-05T09:13:15;101622.06;;;6.54;98.79
17855;BME280;9053;53.358;6.382;2023-03-05T09:15:53;101620.94;;;6.63;98.94
17855;BME280;9053;53.358;6.382;2023-03-05T09:18:24;101624.38;;;6.77;99.12
17855;BME280;9053;53.358;6.382;2023-03-05T09:20:57;101622.34;;;6.86;99.23
17855;BME280;9053;53.358;6.382;2023-03-05T09:23:29;101617.75;;;6.97;99.29
17855;BME280;9053;53.358;6.382;2023-03-05T09:26:04;101611.56;;;7.10;99.37
17855;BME280;9053;53.358;6.382;2023-03-05T09:28:35;101611.50;;;7.23;99.47
17855;BME280;9053;53.358;6.382;2023-03-05T09:31:19;101613.13;;;7.36;99.76
17855;BME280;9053;53.358;6.382;2023-03-05T09:33:49;101604.81;;;7.43;99.60
17855;BME280;9053;53.358;6.382;2023-03-05T09:36:21;101612.84;;;7.46;99.57
17855;BME280;9053;53.358;6.382;2023-03-05T09:38:52;101605.25;;;7.51;99.48
17855;BME280;9053;53.358;6.382;2023-03-05T09:41:33;101598.66;;;7.57;99.46
17855;BME280;9053;53.358;6.382;2023-03-05T09:44:20;101600.66;;;7.62;99.18
17855;BME280;9053;53.358;6.382;2023-03-05T09:47:00;101597.66;;;7.70;98.87
17855;BME280;9053;53.358;6.382;2023-03-05T09:49:44;101593.56;;;7.75;98.53
17855;BME280;9053;53.358;6.382;2023-03-05T09:52:20;101593.31;;;7.71;98.12
17855;BME280;9053;53.358;6.382;2023-03-05T09:54:53;101586.44;;;7.73;97.85
17855;BME280;9053;53.358;6.382;2023-03-05T09:57:29;101596.19;;;7.75;97.46
17855;BME280;9053;53.358;6.382;2023-03-05T10:00:02;101589.25;;;7.76;97.06
17855;BME280;9053;53.358;6.382;2023-03-05T10:02:42;101589.25;;;7.76;96.76
17855;BME280;9053;53.358;6.382;2023-03-05T10:05:18;101589.25;;;7.76;96.53
17855;BME280;9053;53.358;6.382;2023-03-05T10:07:54;101587.63;;;7.78;96.22
17855;BME280;9053;53.358;6.382;2023-03-05T10:10:33;101589.50;;;7.80;95.97
17855;BME280;9053;53.358;6.382;2023-03-05T10:13:21;101584.63;;;7.87;95.74
17855;BME280;9053;53.358;6.382;2023-03-05T10:16:00;101585.69;;;7.90;95.45
17855;BME280;9053;53.358;6.382;2023-03-05T10:18:40;101581.56;;;7.94;95.18
17855;BME280;9053;53.358;6.382;2023-03-05T10:21:17;101585.78;;;7.92;94.90
17855;BME280;9053;53.358;6.382;2023-03-05T10:23:57;101580.13;;;7.84;94.58
17855;BME280;9053;53.358;6.382;2023-03-05T10:26:40;101587.72;;;7.79;94.23
17855;BME280;9053;53.358;6.382;2023-03-05T10:29:28;101576.97;;;7.75;93.80
17855;BME280;9053;53.358;6.382;2023-03-05T10:32:16;101572.38;;;7.71;93.52
17855;BME280;9053;53.358;6.382;2023-03-05T10:35:14;101564.06;;;7.63;93.14
17855;BME280;9053;53.358;6.382;2023-03-05T10:38:06;101565.19;;;7.52;92.87
17855;BME280;9053;53.358;6.382;2023-03-05T10:40:45;101565.81;;;7.48;92.81
17855;BME280;9053;53.358;6.382;2023-03-05T10:43:23;101560.59;;;7.48;92.72
17855;BME280;9053;53.358;6.382;2023-03-05T10:46:00;101552.91;;;7.51;92.66
17855;BME280;9053;53.358;6.382;2023-03-05T10:48:36;101553.28;;;7.57;92.72
17855;BME280;9053;53.358;6.382;2023-03-05T10:51:12;101547.31;;;7.59;92.89
17855;BME280;9053;53.358;6.382;2023-03-05T10:53:51;101543.13;;;7.63;92.71
17855;BME280;9053;53.358;6.382;2023-03-05T10:56:24;101528.41;;;7.65;92.71
17855;BME280;9053;53.358;6.382;2023-03-05T10:58:55;101536.44;;;7.68;92.65
17855;BME280;9053;53.358;6.382;2023-03-05T11:01:28;101523.59;;;7.73;92.64
17855;BME280;9053;53.358;6.382;2023-03-05T11:04:04;101517.56;;;7.74;92.58
17855;BME280;9053;53.358;6.382;2023-03-05T11:06:52;101521.09;;;7.74;92.37
17855;BME280;9053;53.358;6.382;2023-03-05T11:09:30;101511.78;;;7.79;92.24
17855;BME280;9053;53.358;6.382;2023-03-05T11:12:10;101519.16;;;7.87;92.16
17855;BME280;9053;53.358;6.382;2023-03-05T11:18:34;101507.53;;;7.82;91.69
17855;BME280;9053;53.358;6.382;2023-03-05T11:21:08;101517.00;;;7.79;91.61
17855;BME280;9053;53.358;6.382;2023-03-05T11:23:39;101509.94;;;7.78;91.43
17855;BME280;9053;53.358;6.382;2023-03-05T11:26:20;101510.78;;;7.77;91.25
17855;BME280;9053;53.358;6.382;2023-03-05T11:28:58;101505.22;;;7.71;91.07
17855;BME280;9053;53.358;6.382;2023-03-05T11:31:31;101504.22;;;7.69;90.83
17855;BME280;9053;53.358;6.382;2023-03-05T11:34:06;101501.66;;;7.71;90.68
17855;BME280;9053;53.358;6.382;2023-03-05T11:36:37;101498.53;;;7.76;90.47
17855;BME280;9053;53.358;6.382;2023-03-05T11:39:10;101496.97;;;7.80;90.39
17855;BME280;9053;53.358;6.382;2023-03-05T11:41:41;101495.31;;;7.82;90.26
17855;BME280;9053;53.358;6.382;2023-03-05T11:44:18;101492.63;;;7.80;90.10
17855;BME280;9053;53.358;6.382;2023-03-05T11:46:53;101490.09;;;7.82;90.04
17855;BME280;9053;53.358;6.382;2023-03-05T11:49:28;101484.28;;;7.88;89.98
17855;BME280;9053;53.358;6.382;2023-03-05T11:52:04;101476.44;;;7.88;89.89
17855;BME280;9053;53.358;6.382;2023-03-05T11:54:44;101475.69;;;7.90;89.84
17855;BME280;9053;53.358;6.382;2023-03-05T11:57:17;101466.38;;;7.95;89.75
17855;BME280;9053;53.358;6.382;2023-03-05T11:59:52;101473.84;;;8.04;89.55
17855;BME280;9053;53.358;6.382;2023-03-05T12:02:25;101469.75;;;8.09;89.39
17855;BME280;9053;53.358;6.382;2023-03-05T12:04:59;101461.69;;;8.06;89.24
17855;BME280;9053;53.358;6.382;2023-03-05T12:07:35;101451.97;;;8.03;89.03
17855;BME280;9053;53.358;6.382;2023-03-05T12:10:13;101445.09;;;8.06;88.70
17855;BME280;9053;53.358;6.382;2023-03-05T12:12:49;101448.53;;;8.05;88.52
17855;BME280;9053;53.358;6.382;2023-03-05T12:15:40;101443.34;;;8.06;88.32
17855;BME280;9053;53.358;6.382;2023-03-05T12:18:33;101432.16;;;8.09;88.13
17855;BME280;9053;53.358;6.382;2023-03-05T12:21:15;101423.41;;;8.08;88.00
17855;BME280;9053;53.358;6.382;2023-03-05T12:23:48;101423.72;;;8.14;87.89
17855;BME280;9053;53.358;6.382;2023-03-05T12:26:55;101422.25;;;8.19;87.71
17855;BME280;9053;53.358;6.382;2023-03-05T12:29:43;101420.78;;;8.24;87.66
17855;BME280;9053;53.358;6.382;2023-03-05T12:35:36;101405.31;;;8.29;87.30
17855;BME280;9053;53.358;6.382;2023-03-05T12:38:30;101408.88;;;8.31;87.12
17855;BME280;9053;53.358;6.382;2023-03-05T12:44:21;101394.38;;;8.38;86.87
17855;BME280;9053;53.358;6.382;2023-03-05T12:47:16;101396.44;;;8.43;86.81
17855;BME280;9053;53.358;6.382;2023-03-05T12:49:49;101392.84;;;8.41;86.77
17855;BME280;9053;53.358;6.382;2023-03-05T12:52:30;101386.84;;;8.44;86.72
17855;BME280;9053;53.358;6.382;2023-03-05T12:55:14;101374.16;;;8.52;86.69
17855;BME280;9053;53.358;6.382;2023-03-05T12:57:47;101379.41;;;8.52;86.60
17855;BME280;9053;53.358;6.382;2023-03-05T13:00:24;101374.88;;;8.49;86.47
17855;BME280;9053;53.358;6.382;2023-03-05T13:03:01;101373.84;;;8.45;86.29
17855;BME280;9053;53.358;6.382;2023-03-05T13:05:47;101368.16;;;8.38;85.99
17855;BME280;9053;53.358;6.382;2023-03-05T13:08:21;101369.41;;;8.28;85.91
17855;BME280;9053;53.358;6.382;2023-03-05T13:10:58;101367.13;;;8.18;85.66
17855;BME280;9053;53.358;6.382;2023-03-05T13:13:32;101359.19;;;8.16;85.44
17855;BME280;9053;53.358;6.382;2023-03-05T13:16:04;101363.47;;;8.14;85.49
17855;BME280;9053;53.358;6.382;2023-03-05T13:18:34;101358.00;;;8.10;85.26
17855;BME280;9053;53.358;6.382;2023-03-05T13:21:13;101359.38;;;8.03;85.29
17855;BME280;9053;53.358;6.382;2023-03-05T13:23:48;101352.19;;;7.99;85.26
17855;BME280;9053;53.358;6.382;2023-03-05T13:26:27;101340.00;;;7.99;85.30
17855;BME280;9053;53.358;6.382;2023-03-05T13:29:10;101347.91;;;8.01;85.21
17855;BME280;9053;53.358;6.382;2023-03-05T13:31:41;101344.50;;;8.02;85.21
17855;BME280;9053;53.358;6.382;2023-03-05T13:34:15;101344.66;;;8.05;85.18
17855;BME280;9053;53.358;6.382;2023-03-05T13:36:49;101338.56;;;8.06;85.14
17855;BME280;9053;53.358;6.382;2023-03-05T13:39:24;101329.22;;;8.11;85.21
17855;BME280;9053;53.358;6.382;2023-03-05T13:42:01;101340.84;;;8.16;85.22
17855;BME280;9053;53.358;6.382;2023-03-05T13:44:32;101333.16;;;8.19;85.16
17855;BME280;9053;53.358;6.382;2023-03-05T13:47:08;101323.66;;;8.21;85.17
17855;BME280;9053;53.358;6.382;2023-03-05T13:49:39;101320.88;;;8.18;85.09
17855;BME280;9053;53.358;6.382;2023-03-05T13:52:10;101326.78;;;8.14;85.18